Time;durP1;ratioP1;P1;durP2;ratioP2;P2;SDS_P1;SDS_P2;PMS_P1;PMS_P2;Temp;Humidity;BMP_temperature;BMP_pressure;BME280_temperature;BME280_humidity;BME280_pressure;Samples;Min_cycle;Max_cycle;Signal;HPM_P1;HPM_P2
2022/03/08 00:00:15;;;;;;;3.67;1.73;;;7.60;76.60;;;;;;5026567;28;20578;-46
2022/03/08 00:02:42;;;;;;;4.10;1.87;;;7.60;76.60;;;;;;5022623;28;20317;-48
2022/03/08 00:05:10;;;;;;;3.70;2.20;;;7.70;76.70;;;;;;5031080;28;20194;-48
2022/03/08 00:07:37;;;;;;;5.53;2.57;;;7.60;76.60;;;;;;5015621;28;20431;-51
2022/03/08 00:10:08;;;;;;;4.57;1.93;;;7.70;76.70;;;;;;5012726;28;20195;-51
2022/03/08 00:12:36;;;;;;;2.67;1.90;;;7.70;76.70;;;;;;5027455;28;20194;-53
2022/03/08 00:15:06;;;;;;;5.93;2.57;;;7.70;76.60;;;;;;5021541;28;20317;-51
2022/03/08 00:17:33;;;;;;;4.17;2.23;;;7.70;76.70;;;;;;5011074;28;20449;-54
2022/03/08 00:20:00;;;;;;;2.73;2.00;;;7.70;76.60;;;;;;5020700;28;20233;-48
2022/03/08 00:22:27;;;;;;;4.70;2.53;;;7.70;76.60;;;;;;5030106;28;20201;-53
2022/03/08 00:24:54;;;;;;;6.80;3.20;;;7.60;76.70;;;;;;5028661;28;20194;-55
2022/03/08 00:27:23;;;;;;;8.13;3.03;;;7.60;76.80;;;;;;5031573;28;20677;-52
2022/03/08 00:29:50;;;;;;;4.77;2.50;;;7.60;76.80;;;;;;5016647;28;20621;-52
2022/03/08 00:32:17;;;;;;;4.53;2.50;;;7.60;76.80;;;;;;5011692;28;20245;-52
2022/03/08 00:34:44;;;;;;;3.90;2.30;;;7.50;76.70;;;;;;5012705;28;20214;-50
2022/03/08 00:37:11;;;;;;;4.83;2.57;;;7.50;76.70;;;;;;5028695;28;20194;-51
2022/03/08 00:39:38;;;;;;;5.80;2.63;;;7.50;76.70;;;;;;5030600;28;20573;-50
2022/03/08 00:42:11;;;;;;;3.23;1.83;;;7.40;76.70;;;;;;5031271;28;20201;-52
2022/03/08 00:44:40;;;;;;;2.30;2.10;;;7.40;76.80;;;;;;5028546;28;20178;-52
2022/03/08 00:47:09;;;;;;;4.33;2.10;;;7.40;76.80;;;;;;5029165;28;20271;-56
2022/03/08 00:49:37;;;;;;;3.73;2.10;;;7.40;76.70;;;;;;5030429;28;20425;-57
2022/03/08 00:52:05;;;;;;;3.43;2.00;;;7.30;76.80;;;;;;5012918;28;20533;-56
2022/03/08 00:54:33;;;;;;;1.70;1.50;;;7.30;76.80;;;;;;5011699;28;20669;-55
2022/03/08 00:57:00;;;;;;;2.90;2.10;;;7.30;76.90;;;;;;5020825;28;20597;-54
2022/03/08 00:59:27;;;;;;;2.10;1.70;;;7.30;76.90;;;;;;5028940;28;20231;-53
2022/03/08 01:01:56;;;;;;;3.27;1.97;;;7.20;76.80;;;;;;5021749;28;20246;-56
2022/03/08 01:04:23;;;;;;;3.10;1.87;;;7.10;76.90;;;;;;5010970;28;20178;-54
2022/03/08 01:06:50;;;;;;;3.07;2.07;;;7.10;77.10;;;;;;5004456;28;20205;-55
2022/03/08 01:09:17;;;;;;;1.80;1.50;;;7.10;77.30;;;;;;4997977;28;20247;-57
2022/03/08 01:11:44;;;;;;;2.17;1.90;;;7.10;77.20;;;;;;4992154;28;20201;-52
2022/03/08 01:14:11;;;;;;;2.43;2.00;;;7.10;77.30;;;;;;4994109;28;20196;-50
2022/03/08 01:16:39;;;;;;;2.87;2.07;;;7.10;77.30;;;;;;4996740;28;20386;-52
2022/03/08 01:19:08;;;;;;;3.67;1.80;;;7.10;77.30;;;;;;5008999;28;20201;-48
2022/03/08 01:21:36;;;;;;;2.30;1.60;;;7.10;77.40;;;;;;4987965;28;20635;-49
2022/03/08 01:24:04;;;;;;;3.13;1.77;;;7.10;77.40;;;;;;4993660;28;20199;-50
2022/03/08 01:26:32;;;;;;;3.37;1.90;;;7.00;77.50;;;;;;5005464;28;20190;-52
2022/03/08 01:28:59;;;;;;;3.30;2.07;;;7.00;77.70;;;;;;5008457;28;20705;-49
2022/03/08 01:31:27;;;;;;;1.60;1.50;;;7.00;77.70;;;;;;5002431;28;20192;-46
2022/03/08 01:33:55;;;;;;;2.07;1.60;;;7.00;77.80;;;;;;5003388;28;20562;-46
2022/03/08 01:36:24;;;;;;;4.10;1.77;;;7.10;77.90;;;;;;4999075;28;20276;-48
2022/03/08 01:38:52;;;;;;;3.90;1.90;;;7.10;77.90;;;;;;4973310;28;20216;-56
2022/03/08 01:41:19;;;;;;;3.33;1.80;;;7.00;77.80;;;;;;4997876;28;20207;-57
2022/03/08 01:43:47;;;;;;;2.80;1.93;;;7.00;77.90;;;;;;5009958;28;20195;-53
2022/03/08 01:46:15;;;;;;;1.80;1.70;;;7.00;78.10;;;;;;5009649;28;20195;-59
2022/03/08 01:48:42;;;;;;;1.57;1.47;;;7.00;78.10;;;;;;5010243;28;20195;-58
2022/03/08 01:51:10;;;;;;;3.23;1.60;;;7.00;78.10;;;;;;4992729;28;20214;-58
2022/03/08 01:53:40;;;;;;;3.37;1.90;;;7.00;78.00;;;;;;5007908;28;20200;-47
2022/03/08 01:56:08;;;;;;;2.63;1.73;;;7.00;78.00;;;;;;4998889;28;20250;-52
2022/03/08 01:58:37;;;;;;;1.93;1.63;;;7.10;78.20;;;;;;4976584;28;20310;-50
2022/03/08 02:01:04;;;;;;;2.37;1.67;;;7.00;78.10;;;;;;4995276;28;20221;-53
2022/03/08 02:03:32;;;;;;;2.33;1.77;;;7.10;78.20;;;;;;5010059;28;20588;-51
2022/03/08 02:05:59;;;;;;;2.47;1.63;;;7.10;78.20;;;;;;4995156;28;20203;-54
2022/03/08 02:08:27;;;;;;;1.33;1.23;;;7.00;78.20;;;;;;4991049;28;20206;-54
2022/03/08 02:10:56;;;;;;;3.47;1.60;;;7.00;78.30;;;;;;5001897;28;20191;-52
2022/03/08 02:13:25;;;;;;;2.20;1.80;;;7.00;78.50;;;;;;5008954;28;20491;-53
2022/03/08 02:15:52;;;;;;;1.60;1.50;;;7.00;78.60;;;;;;5005933;28;20192;-53
2022/03/08 02:18:20;;;;;;;2.67;1.90;;;6.90;78.50;;;;;;5000994;28;20226;-56
2022/03/08 02:20:47;;;;;;;2.17;1.40;;;7.00;79.50;;;;;;5000699;28;20218;-54
2022/03/08 02:23:16;;;;;;;1.80;1.47;;;7.00;78.80;;;;;;5006826;28;20301;-53
2022/03/08 02:25:44;;;;;;;1.43;1.30;;;6.90;78.80;;;;;;5005436;28;20192;-50
2022/03/08 02:28:11;;;;;;;1.80;1.70;;;6.90;78.90;;;;;;4992388;28;20277;-55
2022/03/08 02:30:38;;;;;;;1.60;1.37;;;6.90;79.20;;;;;;4988722;28;20196;-52
2022/03/08 02:33:05;;;;;;;1.43;1.33;;;6.90;79.50;;;;;;5003723;28;20191;-50
2022/03/08 02:35:33;;;;;;;1.97;1.77;;;6.80;79.50;;;;;;5008220;28;20263;-52
2022/03/08 02:38:03;;;;;;;2.87;1.57;;;6.80;79.70;;;;;;5003320;28;20183;-53
2022/03/08 02:40:33;;;;;;;2.60;1.27;;;6.80;79.90;;;;;;5010183;28;20203;-53
2022/03/08 02:43:01;;;;;;;1.93;1.40;;;6.80;80.00;;;;;;5014440;28;20533;-54
2022/03/08 02:45:28;;;;;;;2.00;1.43;;;6.80;80.20;;;;;;5011110;28;20213;-51
2022/03/08 02:47:56;;;;;;;2.43;1.47;;;6.80;80.40;;;;;;5003959;28;20195;-52
2022/03/08 02:50:23;;;;;;;1.10;1.10;;;6.80;80.40;;;;;;5005840;28;20194;-51
2022/03/08 02:52:52;;;;;;;1.10;0.90;;;6.80;80.40;;;;;;5013677;28;20589;-51
2022/03/08 02:55:21;;;;;;;0.93;0.87;;;6.80;80.40;;;;;;5011250;28;20276;-52
2022/03/08 02:57:50;;;;;;;1.03;0.93;;;6.80;80.40;;;;;;5012974;28;20320;-51
2022/03/08 03:00:19;;;;;;;1.10;1.10;;;6.80;80.40;;;;;;5011220;28;20227;-56
2022/03/08 03:02:46;;;;;;;1.23;1.10;;;6.90;80.40;;;;;;5003768;28;20284;-54
2022/03/08 03:05:14;;;;;;;0.80;0.80;;;6.90;80.40;;;;;;5007173;28;20205;-53
2022/03/08 03:07:42;;;;;;;0.97;0.90;;;6.90;80.30;;;;;;5003040;28;20279;-54
2022/03/08 03:10:12;;;;;;;1.10;1.07;;;6.90;80.20;;;;;;5002660;28;20600;-55
2022/03/08 03:12:40;;;;;;;1.03;1.03;;;6.90;80.10;;;;;;4999681;28;20204;-50
2022/03/08 03:15:11;;;;;;;1.27;1.00;;;6.90;80.10;;;;;;5008338;28;20201;-50
2022/03/08 03:17:39;;;;;;;1.40;1.00;;;6.80;80.10;;;;;;4998672;28;20197;-49
2022/03/08 03:20:08;;;;;;;0.83;0.83;;;6.90;80.20;;;;;;5011488;28;20223;-50
2022/03/08 03:22:36;;;;;;;0.93;0.93;;;6.80;80.10;;;;;;5012151;28;20238;-53
2022/03/08 03:25:05;;;;;;;0.80;0.70;;;6.80;80.10;;;;;;5010282;28;20217;-49
2022/03/08 03:27:32;;;;;;;1.00;0.90;;;6.80;80.10;;;;;;5011657;28;20199;-50
2022/03/08 03:29:59;;;;;;;0.87;0.87;;;6.80;80.20;;;;;;5011489;28;20198;-55
2022/03/08 03:32:28;;;;;;;1.30;1.00;;;6.70;80.20;;;;;;5012893;28;20192;-53
2022/03/08 03:34:55;;;;;;;0.77;0.70;;;6.70;80.20;;;;;;5012295;28;20212;-54
2022/03/08 03:37:23;;;;;;;0.90;0.83;;;6.70;80.30;;;;;;4993302;28;20799;-51
2022/03/08 03:39:50;;;;;;;1.00;0.90;;;6.70;80.30;;;;;;5012681;28;20516;-50
2022/03/08 03:42:18;;;;;;;1.17;1.00;;;6.70;80.70;;;;;;5011862;28;20627;-53
2022/03/08 03:44:45;;;;;;;1.23;0.80;;;6.70;80.30;;;;;;5011080;28;20661;-50
2022/03/08 03:47:12;;;;;;;0.90;0.90;;;6.70;80.30;;;;;;5000883;28;20201;-55
2022/03/08 03:49:41;;;;;;;0.90;0.90;;;6.60;80.30;;;;;;4996112;28;20636;-54
2022/03/08 03:52:08;;;;;;;1.17;1.10;;;6.60;80.30;;;;;;4998624;28;20200;-55
2022/03/08 03:54:35;;;;;;;1.23;1.00;;;6.60;80.40;;;;;;5008827;28;20222;-50
2022/03/08 03:57:03;;;;;;;1.50;1.17;;;6.60;80.40;;;;;;4995484;28;20190;-55
2022/03/08 03:59:30;;;;;;;1.43;1.30;;;6.60;80.40;;;;;;4992803;28;20200;-53
2022/03/08 04:01:57;;;;;;;1.07;1.03;;;6.60;80.70;;;;;;5007771;28;20224;-53
2022/03/08 04:04:24;;;;;;;1.13;1.03;;;6.60;80.50;;;;;;5001281;28;20200;-55
2022/03/08 04:06:53;;;;;;;1.70;0.90;;;6.60;80.40;;;;;;4995436;28;20195;-56
2022/03/08 04:09:20;;;;;;;0.90;0.90;;;6.60;80.40;;;;;;5010689;28;20227;-58
2022/03/08 04:11:48;;;;;;;1.77;1.10;;;6.60;80.50;;;;;;5012160;28;20201;-57
2022/03/08 04:14:15;;;;;;;1.13;1.00;;;6.60;80.40;;;;;;5011546;28;20528;-55
2022/03/08 04:16:42;;;;;;;1.83;1.07;;;6.60;80.40;;;;;;5008529;28;20239;-54
2022/03/08 04:19:09;;;;;;;1.70;1.07;;;6.60;80.40;;;;;;4992490;28;20193;-53
2022/03/08 04:21:36;;;;;;;1.10;1.00;;;6.60;80.30;;;;;;4992729;28;20213;-52
2022/03/08 04:24:05;;;;;;;1.30;1.20;;;6.60;80.40;;;;;;4974321;28;20708;-53
2022/03/08 04:26:33;;;;;;;1.10;1.00;;;6.60;80.30;;;;;;4984548;28;20287;-54
2022/03/08 04:29:00;;;;;;;0.80;0.80;;;6.60;80.40;;;;;;4992292;28;20201;-55
2022/03/08 04:31:27;;;;;;;1.00;0.90;;;6.60;80.30;;;;;;4997156;28;20201;-57
2022/03/08 04:33:54;;;;;;;2.93;1.30;;;6.60;80.20;;;;;;5010871;28;20196;-56
2022/03/08 04:36:21;;;;;;;0.93;0.93;;;6.50;80.10;;;;;;5002790;28;20204;-52
2022/03/08 04:38:48;;;;;;;1.17;1.07;;;6.50;80.20;;;;;;5011388;28;20553;-56
2022/03/08 04:41:17;;;;;;;1.47;1.23;;;6.40;80.20;;;;;;5009929;28;20216;-56
2022/03/08 04:43:46;;;;;;;1.80;1.60;;;6.40;80.40;;;;;;5011450;28;20200;-57
2022/03/08 04:46:13;;;;;;;1.53;1.43;;;6.40;80.50;;;;;;5010606;28;20660;-57
2022/03/08 04:48:40;;;;;;;1.60;1.50;;;6.40;80.60;;;;;;5008650;28;20278;-54
2022/03/08 04:51:07;;;;;;;2.57;1.53;;;6.40;80.50;;;;;;4994534;28;20278;-54
2022/03/08 04:53:35;;;;;;;3.63;1.30;;;6.40;80.40;;;;;;5003212;28;20194;-50
2022/03/08 04:56:02;;;;;;;1.53;1.17;;;6.40;80.30;;;;;;5008070;28;20201;-52
2022/03/08 04:58:30;;;;;;;1.27;1.17;;;6.30;80.30;;;;;;5008573;28;20199;-51
2022/03/08 05:00:58;;;;;;;2.17;1.33;;;6.40;80.50;;;;;;4993146;28;20206;-52
2022/03/08 05:03:25;;;;;;;1.90;1.20;;;6.40;80.50;;;;;;5010400;28;20228;-50
2022/03/08 05:05:52;;;;;;;1.70;1.47;;;6.40;80.50;;;;;;5002116;28;20295;-50
2022/03/08 05:08:19;;;;;;;3.03;1.10;;;6.40;80.40;;;;;;4991268;28;20208;-55
2022/03/08 05:10:46;;;;;;;1.80;1.30;;;6.40;80.30;;;;;;4991206;28;20221;-51
2022/03/08 05:13:13;;;;;;;1.53;1.20;;;6.40;80.20;;;;;;5004080;28;20192;-52
2022/03/08 05:15:42;;;;;;;1.00;1.00;;;6.40;80.30;;;;;;5009285;28;20261;-56
2022/03/08 05:18:09;;;;;;;2.97;1.20;;;6.40;80.30;;;;;;5009442;28;20568;-53
2022/03/08 05:20:37;;;;;;;1.00;1.00;;;6.40;80.30;;;;;;5010157;28;20211;-52
2022/03/08 05:23:04;;;;;;;1.70;1.43;;;6.40;80.30;;;;;;5004464;28;20219;-50
2022/03/08 05:25:31;;;;;;;1.43;1.33;;;6.40;80.30;;;;;;4996206;28;20686;-52
2022/03/08 05:27:58;;;;;;;1.27;1.17;;;6.30;80.10;;;;;;5010929;28;20227;-51
2022/03/08 05:30:25;;;;;;;1.20;1.10;;;6.40;80.20;;;;;;5009313;28;20196;-48
2022/03/08 05:32:54;;;;;;;1.17;0.90;;;6.40;80.10;;;;;;5008944;28;20556;-48
2022/03/08 05:35:22;;;;;;;1.63;1.30;;;6.40;80.00;;;;;;4990359;28;20207;-54
2022/03/08 05:37:49;;;;;;;2.40;1.27;;;6.40;80.00;;;;;;4992034;28;20709;-54
2022/03/08 05:40:16;;;;;;;1.20;1.10;;;6.30;79.90;;;;;;5010345;28;20245;-52
2022/03/08 05:42:44;;;;;;;1.67;1.20;;;6.40;80.00;;;;;;5010770;28;20346;-50
2022/03/08 05:45:12;;;;;;;1.97;1.77;;;6.30;79.80;;;;;;5008929;28;20192;-52
2022/03/08 05:47:40;;;;;;;1.20;1.10;;;6.30;79.90;;;;;;5008705;28;20211;-52
2022/03/08 05:50:10;;;;;;;1.53;1.43;;;6.40;79.90;;;;;;5009980;28;20205;-55
2022/03/08 05:52:37;;;;;;;2.63;1.70;;;6.40;79.80;;;;;;5001310;28;20197;-51
2022/03/08 05:55:05;;;;;;;3.03;1.40;;;6.40;79.70;;;;;;4995508;28;20188;-52
2022/03/08 05:57:32;;;;;;;2.37;1.57;;;6.40;79.70;;;;;;5009220;28;20231;-56
2022/03/08 05:59:59;;;;;;;1.30;1.20;;;6.40;79.60;;;;;;5009169;28;20191;-54
2022/03/08 06:02:27;;;;;;;2.43;1.70;;;6.40;79.60;;;;;;5006021;28;20222;-53
2022/03/08 06:04:54;;;;;;;1.60;1.50;;;6.40;79.60;;;;;;5027280;28;20210;-56
2022/03/08 06:07:22;;;;;;;2.63;1.43;;;6.40;79.60;;;;;;5029210;28;20196;-52
2022/03/08 06:09:49;;;;;;;2.03;1.53;;;6.40;79.60;;;;;;5028329;28;20196;-53
2022/03/08 06:12:16;;;;;;;1.60;1.50;;;6.40;79.60;;;;;;5032606;28;20610;-53
2022/03/08 06:14:43;;;;;;;2.23;1.50;;;6.50;79.60;;;;;;5015168;28;20236;-52
2022/03/08 06:17:11;;;;;;;1.83;1.50;;;6.50;79.40;;;;;;5016931;28;20208;-53
2022/03/08 06:19:38;;;;;;;1.30;1.20;;;6.50;79.30;;;;;;5019385;28;20201;-53
2022/03/08 06:22:06;;;;;;;1.97;1.50;;;6.50;79.20;;;;;;5019850;28;20227;-52
2022/03/08 06:24:35;;;;;;;2.80;1.73;;;6.50;79.30;;;;;;5013900;28;20195;-52
2022/03/08 06:27:02;;;;;;;1.50;1.40;;;6.50;79.30;;;;;;5006500;28;20208;-51
2022/03/08 06:29:29;;;;;;;1.90;1.43;;;6.50;79.30;;;;;;5030307;28;20191;-56
2022/03/08 06:31:56;;;;;;;1.60;1.50;;;6.50;79.40;;;;;;5015150;28;20221;-56
2022/03/08 06:34:23;;;;;;;2.20;1.63;;;6.50;79.30;;;;;;5025778;28;20872;-56
2022/03/08 06:36:50;;;;;;;1.47;1.37;;;6.50;79.30;;;;;;5020260;28;20219;-54
2022/03/08 06:39:17;;;;;;;5.83;3.50;;;6.60;79.30;;;;;;5018923;28;20219;-54
2022/03/08 06:41:46;;;;;;;15.50;7.53;;;6.60;79.30;;;;;;5017001;28;20220;-55
2022/03/08 06:44:13;;;;;;;27.63;10.23;;;6.60;79.30;;;;;;5031256;28;20208;-52
2022/03/08 06:46:41;;;;;;;40.97;15.50;;;6.70;79.30;;;;;;5032332;28;20205;-54
2022/03/08 06:49:09;;;;;;;36.73;14.73;;;6.70;79.20;;;;;;5030160;28;20196;-51
2022/03/08 06:51:37;;;;;;;36.37;15.27;;;6.80;79.20;;;;;;5013147;28;20214;-52
2022/03/08 06:54:04;;;;;;;47.83;18.90;;;6.80;79.20;;;;;;5017497;28;20192;-54
2022/03/08 06:56:33;;;;;;;38.47;15.97;;;6.80;79.10;;;;;;5031245;28;20628;-49
2022/03/08 06:59:02;;;;;;;39.87;15.97;;;6.80;79.20;;;;;;5032789;28;20245;-49
2022/03/08 07:01:29;;;;;;;38.67;15.20;;;6.90;79.10;;;;;;5012008;28;20225;-47
2022/03/08 07:03:56;;;;;;;37.00;14.93;;;6.90;79.00;;;;;;5011420;28;20607;-52
2022/03/08 07:06:24;;;;;;;30.10;12.57;;;7.00;79.10;;;;;;5011365;28;20210;-49
2022/03/08 07:08:53;;;;;;;36.17;14.23;;;7.10;79.00;;;;;;5012754;28;20565;-53
2022/03/08 07:11:20;;;;;;;33.63;12.83;;;7.10;78.90;;;;;;5012687;28;20204;-55
2022/03/08 07:13:47;;;;;;;30.20;11.43;;;7.20;78.90;;;;;;5013069;28;20197;-47
2022/03/08 07:16:16;;;;;;;26.70;11.40;;;7.30;78.90;;;;;;4992445;28;20203;-51
2022/03/08 07:18:43;;;;;;;30.20;11.30;;;7.40;78.80;;;;;;4975436;28;20211;-48
2022/03/08 07:21:10;;;;;;;34.93;10.67;;;7.50;78.70;;;;;;4992809;28;20210;-55
2022/03/08 07:23:38;;;;;;;33.40;12.87;;;7.60;78.60;;;;;;5009303;28;20197;-54
2022/03/08 07:26:05;;;;;;;35.20;12.17;;;7.70;78.50;;;;;;5011754;28;20195;-56
2022/03/08 07:28:32;;;;;;;32.83;12.20;;;7.80;78.50;;;;;;5012834;28;20195;-54
2022/03/08 07:30:59;;;;;;;28.87;10.43;;;7.90;78.30;;;;;;5011173;28;20186;-55
2022/03/08 07:33:28;;;;;;;21.50;8.53;;;8.10;78.10;;;;;;5012523;28;20225;-50
2022/03/08 07:35:55;;;;;;;18.47;7.30;;;8.30;77.90;;;;;;5011716;28;20265;-50
2022/03/08 07:38:22;;;;;;;17.20;7.10;;;8.40;77.50;;;;;;5002731;28;20222;-51
2022/03/08 07:40:49;;;;;;;13.20;5.90;;;8.50;78.10;;;;;;5009620;28;20195;-51
2022/03/08 07:43:16;;;;;;;13.00;5.77;;;8.60;77.10;;;;;;5003764;28;20208;-53
2022/03/08 07:45:44;;;;;;;12.37;5.23;;;9.40;77.60;;;;;;4990596;28;20185;-51
2022/03/08 07:48:11;;;;;;;7.93;4.07;;;8.90;76.70;;;;;;4992144;28;20200;-51
2022/03/08 07:50:39;;;;;;;8.60;3.80;;;9.00;76.30;;;;;;4994581;28;20686;-52
2022/03/08 07:53:07;;;;;;;5.67;3.47;;;9.00;75.80;;;;;;4991270;28;20280;-56
2022/03/08 07:55:34;;;;;;;6.37;3.07;;;9.10;75.80;;;;;;4990010;28;20196;-55
2022/03/08 07:58:03;;;;;;;6.63;3.53;;;9.30;76.20;;;;;;4992756;28;20569;-53
2022/03/08 08:00:30;;;;;;;4.47;2.93;;;9.70;76.10;;;;;;4982520;28;20408;-53
2022/03/08 08:02:59;;;;;;;5.20;3.27;;;10.50;73.90;;;;;;4992084;28;20711;-53
2022/03/08 08:05:26;;;;;;;6.50;3.17;;;11.50;72.00;;;;;;4991543;28;20202;-52
2022/03/08 08:07:55;;;;;;;5.73;3.23;;;12.40;69.10;;;;;;4992399;28;20196;-55
2022/03/08 08:10:22;;;;;;;3.67;2.70;;;13.20;67.10;;;;;;5011533;28;20237;-54
2022/03/08 08:12:49;;;;;;;4.27;2.60;;;13.90;65.20;;;;;;5012043;28;20639;-54
2022/03/08 08:15:16;;;;;;;3.57;2.40;;;14.60;63.60;;;;;;5010115;28;20197;-52
2022/03/08 08:17:43;;;;;;;2.33;2.00;;;15.20;62.10;;;;;;5010456;28;20214;-55
2022/03/08 08:20:11;;;;;;;2.97;2.30;;;15.70;60.60;;;;;;5008125;28;20196;-52
2022/03/08 08:22:38;;;;;;;3.50;2.20;;;16.10;59.00;;;;;;5010429;28;20216;-54
2022/03/08 08:25:08;;;;;;;3.47;2.13;;;16.40;58.10;;;;;;5010674;28;20203;-50
2022/03/08 08:27:37;;;;;;;2.60;1.90;;;16.90;57.40;;;;;;5011271;28;20208;-51
2022/03/08 08:30:05;;;;;;;3.23;2.17;;;17.10;56.60;;;;;;5010163;28;20219;-50
2022/03/08 08:32:32;;;;;;;6.30;2.00;;;16.90;55.90;;;;;;5010296;28;20193;-54
2022/03/08 08:34:59;;;;;;;1.93;1.63;;;16.70;55.80;;;;;;5009557;28;20248;-51
2022/03/08 08:37:26;;;;;;;2.10;1.93;;;16.50;55.50;;;;;;5010772;28;20197;-52
2022/03/08 08:39:53;;;;;;;2.17;1.87;;;16.30;55.40;;;;;;5010688;28;20622;-53
2022/03/08 08:42:22;;;;;;;4.20;2.80;;;16.20;55.40;;;;;;5011320;28;20743;-54
2022/03/08 08:44:49;;;;;;;2.47;2.27;;;16.50;53.90;;;;;;5009474;28;20211;-53
2022/03/08 08:47:16;;;;;;;2.83;1.97;;;17.00;53.40;;;;;;5010497;28;20193;-50
2022/03/08 08:49:43;;;;;;;1.80;1.70;;;17.40;52.90;;;;;;5010064;28;20245;-52
2022/03/08 08:52:11;;;;;;;2.73;1.80;;;17.90;52.50;;;;;;5010708;28;20190;-56
2022/03/08 08:54:38;;;;;;;5.50;2.00;;;18.40;51.40;;;;;;5010327;28;20277;-50
2022/03/08 08:57:05;;;;;;;3.37;2.00;;;18.70;50.50;;;;;;5010421;28;20666;-55
2022/03/08 08:59:34;;;;;;;2.70;1.97;;;18.90;49.90;;;;;;5009863;28;20277;-53
2022/03/08 09:02:01;;;;;;;2.17;1.63;;;19.00;49.50;;;;;;5009655;28;20231;-51
2022/03/08 09:04:28;;;;;;;1.70;1.60;;;19.00;48.80;;;;;;5009920;28;20290;-56
2022/03/08 09:06:55;;;;;;;2.13;1.60;;;19.20;48.70;;;;;;5010161;28;20194;-54
2022/03/08 09:09:22;;;;;;;2.67;1.40;;;19.50;47.50;;;;;;5009925;28;20315;-53
2022/03/08 09:11:49;;;;;;;2.10;1.60;;;19.60;47.00;;;;;;5010330;28;20279;-56
2022/03/08 09:14:16;;;;;;;2.33;1.33;;;19.50;46.10;;;;;;5009438;28;20198;-51
2022/03/08 09:16:45;;;;;;;1.37;1.27;;;19.10;45.80;;;;;;5008715;28;20214;-52
2022/03/08 09:19:12;;;;;;;3.40;1.40;;;18.90;46.10;;;;;;5010225;28;20205;-51
2022/03/08 09:21:39;;;;;;;1.60;1.40;;;18.90;45.70;;;;;;5009780;28;20207;-55
2022/03/08 09:24:07;;;;;;;2.33;1.60;;;18.60;45.20;;;;;;5010228;28;20200;-48
2022/03/08 09:26:34;;;;;;;2.20;1.40;;;18.30;44.90;;;;;;5010197;28;20191;-51
2022/03/08 09:29:02;;;;;;;1.57;1.47;;;17.90;44.80;;;;;;5010202;28;20199;-53
2022/03/08 09:31:29;;;;;;;1.87;1.77;;;17.60;44.80;;;;;;4991930;28;20558;-49
2022/03/08 09:33:57;;;;;;;3.10;1.87;;;17.70;44.90;;;;;;5010078;28;20839;-54
2022/03/08 09:36:24;;;;;;;1.50;1.40;;;17.70;44.90;;;;;;5009965;28;20695;-53
2022/03/08 09:38:52;;;;;;;3.07;2.33;;;17.60;44.80;;;;;;5010048;28;20241;-49
2022/03/08 09:41:19;;;;;;;2.43;1.90;;;17.30;44.60;;;;;;5009965;28;20195;-52
2022/03/08 09:43:47;;;;;;;3.33;2.40;;;17.00;44.40;;;;;;5010408;28;20210;-56
2022/03/08 09:46:14;;;;;;;6.07;2.23;;;17.00;44.00;;;;;;5008823;28;20199;-54
2022/03/08 09:48:41;;;;;;;3.07;2.10;;;16.90;43.90;;;;;;4992320;28;20210;-52
2022/03/08 09:51:10;;;;;;;2.73;1.57;;;16.90;44.30;;;;;;5009332;28;20249;-53
2022/03/08 09:53:38;;;;;;;3.13;2.10;;;17.10;44.70;;;;;;5009778;28;20198;-51
2022/03/08 09:56:06;;;;;;;3.20;2.27;;;17.60;44.50;;;;;;5009771;28;20192;-52
2022/03/08 09:58:35;;;;;;;2.83;2.20;;;18.00;44.00;;;;;;5010210;28;20492;-55
2022/03/08 10:01:02;;;;;;;4.03;2.20;;;18.50;43.00;;;;;;5008671;28;20200;-50
2022/03/08 10:03:36;;;;;;;2.90;2.20;;;19.20;41.90;;;;;;5009131;28;20230;-54
2022/03/08 10:06:04;;;;;;;1.77;1.57;;;20.30;41.40;;;;;;5009841;28;20185;-52
2022/03/08 10:08:33;;;;;;;1.40;1.30;;;21.80;41.10;;;;;;5010098;28;20626;-51
2022/03/08 10:11:01;;;;;;;1.60;1.50;;;23.30;39.80;;;;;;5009658;28;20195;-48
2022/03/08 10:13:32;;;;;;;1.90;1.30;;;24.30;38.90;;;;;;5004155;28;20563;-57
2022/03/08 10:16:11;;;;;;;3.00;2.30;;;25.30;37.70;;;;;;4989345;28;20188;-56
2022/03/08 10:18:42;;;;;;;1.55;1.45;;;26.20;35.90;;;;;;4972357;28;20210;-56
2022/03/08 10:21:30;;;;;;;1.77;1.60;;;27.10;35.20;;;;;;4989725;28;20191;-55
2022/03/08 10:24:01;;;;;;;1.90;1.30;;;27.90;34.40;;;;;;4990000;28;20196;-56
2022/03/08 10:26:28;;;;;;;1.90;1.75;;;28.70;33.80;;;;;;4989893;28;20180;-56
2022/03/08 10:28:57;;;;;;;1.73;1.63;;;29.40;33.20;;;;;;4990230;28;20227;-56
2022/03/08 10:31:24;;;;;;;1.38;1.27;;;30.00;32.50;;;;;;4989029;28;20196;-55
2022/03/08 10:33:52;;;;;;;1.60;1.50;;;30.40;31.70;;;;;;4989865;28;20192;-55
2022/03/08 10:36:21;;;;;;;1.50;1.40;;;30.80;30.90;;;;;;4990297;28;20222;-56
2022/03/08 10:39:11;;;;;;;1.50;1.40;;;31.00;30.60;;;;;;5009383;28;20199;-56
2022/03/08 10:41:52;;;;;;;2.33;1.45;;;31.30;30.10;;;;;;4992186;28;20210;-56
2022/03/08 10:44:33;;;;;;;2.40;1.20;;;31.80;29.60;;;;;;5009228;28;20227;-56
2022/03/08 10:47:02;;;;;;;2.08;1.70;;;32.10;29.00;;;;;;5008889;28;20179;-57
2022/03/08 10:49:29;;;;;;;2.17;1.70;;;32.60;28.50;;;;;;4992064;28;20205;-56
2022/03/08 10:52:00;;;;;;;1.80;1.40;;;32.90;28.00;;;;;;4993235;28;20192;-55
2022/03/08 10:54:30;;;;;;;1.90;1.60;;;33.20;27.90;;;;;;4989536;28;20212;-55
2022/03/08 10:56:58;;;;;;;1.45;1.42;;;33.60;27.60;;;;;;4989914;28;20214;-50
2022/03/08 10:59:26;;;;;;;1.50;1.40;;;34.00;27.00;;;;;;4991705;28;20192;-53
2022/03/08 11:01:53;;;;;;;1.30;1.20;;;34.20;26.80;;;;;;4992920;28;20278;-55
2022/03/08 11:04:22;;;;;;;1.40;1.40;;;34.30;26.60;;;;;;4993019;28;20211;-56
2022/03/08 11:06:52;;;;;;;1.40;1.30;;;34.50;26.20;;;;;;4993175;28;20282;-56
2022/03/08 11:09:21;;;;;;;2.08;1.30;;;34.70;25.80;;;;;;4992841;28;20644;-56
2022/03/08 11:11:50;;;;;;;2.25;1.38;;;34.80;25.60;;;;;;4993496;28;20677;-53
2022/03/08 11:14:18;;;;;;;1.50;1.40;;;35.00;25.40;;;;;;4994938;28;20203;-56
2022/03/08 11:16:50;;;;;;;1.70;1.60;;;35.20;25.00;;;;;;5012247;28;20287;-53
2022/03/08 11:19:19;;;;;;;2.92;1.55;;;35.30;24.70;;;;;;5012103;28;20207;-55
2022/03/08 11:21:47;;;;;;;2.30;1.88;;;35.50;24.40;;;;;;5012629;28;20195;-55
2022/03/08 11:24:15;;;;;;;2.28;2.00;;;35.50;24.00;;;;;;5011728;28;20290;-56
2022/03/08 11:26:44;;;;;;;7.13;2.45;;;35.10;23.90;;;;;;4994062;28;20211;-56
2022/03/08 11:29:13;;;;;;;5.20;2.15;;;34.40;23.50;;;;;;5011590;28;20214;-54
2022/03/08 11:31:43;;;;;;;3.40;2.60;;;33.50;23.70;;;;;;5011248;28;20195;-56
2022/03/08 11:34:19;;;;;;;8.90;2.55;;;32.20;23.90;;;;;;5011720;28;20198;-55
2022/03/08 11:36:56;;;;;;;3.78;1.80;;;30.50;24.20;;;;;;5011995;28;20174;-56
2022/03/08 11:39:25;;;;;;;1.85;1.75;;;29.30;25.20;;;;;;5011819;28;20183;-56
2022/03/08 11:41:54;;;;;;;2.38;2.03;;;29.10;25.60;;;;;;5012484;28;20241;-56
2022/03/08 11:44:31;;;;;;;4.22;2.33;;;29.20;25.60;;;;;;5011654;28;20893;-55
2022/03/08 11:47:11;;;;;;;3.47;2.22;;;28.90;25.10;;;;;;4993912;28;20195;-54
2022/03/08 11:49:45;;;;;;;3.03;1.98;;;28.40;25.20;;;;;;5011463;28;20179;-54
2022/03/08 11:52:15;;;;;;;2.95;2.05;;;27.90;25.20;;;;;;4994302;28;20202;-54
2022/03/08 11:54:51;;;;;;;1.95;1.50;;;27.60;25.60;;;;;;4994489;28;20195;-55
2022/03/08 11:57:51;;;;;;;3.15;2.50;;;27.40;25.80;;;;;;4993791;28;20207;-53
2022/03/08 12:00:21;;;;;;;4.75;2.63;;;27.20;25.60;;;;;;5010163;28;20563;-53
2022/03/08 12:02:50;;;;;;;3.28;2.45;;;27.70;25.30;;;;;;5011695;28;20306;-56
2022/03/08 12:05:43;;;;;;;2.70;2.40;;;28.20;25.00;;;;;;5011234;28;20682;-53
2022/03/08 12:08:41;;;;;;;3.10;2.50;;;29.10;25.00;;;;;;5011096;28;20198;-55
2022/03/08 12:11:30;;;;;;;3.08;1.95;;;30.20;24.70;;;;;;5011289;28;20183;-51
2022/03/08 12:14:06;;;;;;;2.50;2.30;;;30.80;24.30;;;;;;5008555;28;20286;-55
2022/03/08 12:16:35;;;;;;;3.28;2.25;;;30.20;24.30;;;;;;5010431;28;20770;-52
2022/03/08 12:19:04;;;;;;;2.55;2.03;;;29.80;24.10;;;;;;5010978;28;20192;-50
2022/03/08 12:21:37;;;;;;;2.72;2.50;;;30.00;24.30;;;;;;5010958;28;20202;-53
2022/03/08 12:24:05;;;;;;;2.42;2.22;;;30.40;23.90;;;;;;5010542;28;20594;-51
2022/03/08 12:26:36;;;;;;;4.10;2.15;;;30.70;23.90;;;;;;5010868;28;20191;-51
2022/03/08 12:29:05;;;;;;;5.63;2.47;;;31.20;23.30;;;;;;5011245;28;20184;-57
2022/03/08 12:31:35;;;;;;;2.33;2.13;;;31.50;23.20;;;;;;5010532;28;20195;-55
2022/03/08 12:34:02;;;;;;;2.20;2.10;;;32.10;23.40;;;;;;4992982;28;20198;-51
2022/03/08 12:36:29;;;;;;;2.25;2.15;;;32.70;23.40;;;;;;4992702;28;20210;-50
2022/03/08 12:38:57;;;;;;;3.13;2.60;;;32.30;23.30;;;;;;5010629;28;20655;-55
2022/03/08 12:41:27;;;;;;;2.75;2.55;;;32.20;23.40;;;;;;5011214;28;20513;-54
2022/03/08 12:44:02;;;;;;;3.42;3.13;;;32.60;23.50;;;;;;5010554;28;20199;-57
2022/03/08 12:46:29;;;;;;;5.10;3.42;;;32.90;23.20;;;;;;4984567;28;20585;-51
2022/03/08 12:48:58;;;;;;;3.70;3.40;;;32.90;23.20;;;;;;5010198;28;20211;-53
2022/03/08 12:51:25;;;;;;;8.38;3.03;;;33.20;22.70;;;;;;5010760;28;20192;-52
2022/03/08 12:53:57;;;;;;;4.18;2.08;;;33.30;22.10;;;;;;5010585;28;20238;-53
2022/03/08 12:56:26;;;;;;;3.15;2.38;;;33.40;22.20;;;;;;5010462;28;20190;-53